• Join FlightAware (Why Join?)
  • Login
  • US Flag 
11:51AM EDT


 

Airport Tracker/Info


-or-


 

Live Flight TrackerFlight Track Log ✈ GJS3649 ✈ 16-May-2013 ✈ KBDL - KIAD

Flight Track Log - Related Links

Times and Time Zones

All times are in EDT time to prevent confusion due to time zone crossing. See the GJS3649 flight status page for this flight to view local times or setup timezone preferences in your user account.

Time Position Orientation Groundspeed Altitude Reporting Facility
EDT Latitude Longitude Course Direction KTS MPH feet Rate Location/Type
09:00PM 41.9500 -72.7053 236° Southwest 147 169 1,200  Level Boston Center
09:01PM 41.9583 -72.7219 304° West 155 178 1,900 2,520 Climbing Boston Center
09:02PM 41.9997 -72.7697 319° Northwest 204 235 4,700 2,880 Climbing Boston Center
09:03PM 42.0078 -72.8425 278° West 209 241 7,700 2,940 Climbing Boston Center
09:04PM 41.9033 -73.1881 265° West  Level FlightAware Approximate
09:04PM 41.9867 -72.9289 252° West 203 234 10,600  Level Boston Center
09:05PM 41.8934 -73.3132 236° Southwest  Level FlightAware Approximate
09:05PM 41.9675 -73.0236 255° West 241 277 13,500  Level Boston Center
09:06PM 41.8403 -73.4195 236° Southwest  Level FlightAware Approximate
09:06PM 41.9400 -73.1100 247° West 280 322 15,900  Level Boston Center
09:07PM 41.8997 -73.2239 245° Southwest 305 351 18,000 1,920 Climbing Boston Center
09:08PM 41.8592 -73.3403 245° Southwest 331 381 19,800 1,800 Climbing Boston Center
09:09PM 41.8164 -73.4567 244° Southwest 342 394 21,700 1,680 Climbing Boston Center
09:10PM 41.7572 -73.5367 225° Southwest 353 406 23,200 1,740 Climbing Boston Center
09:12PM 41.6014 -73.7311 223° Southwest 384 442 27,000 1,680 Climbing New York Center
09:13PM 41.5217 -73.8328 224° Southwest 379 436 28,300 1,080 Climbing New York Center
09:14PM 41.4419 -73.9344 224° Southwest 384 442 29,200 840 Climbing New York Center
09:15PM 41.3558 -74.0408 223° Southwest 398 458 30,000 360 Climbing New York Center
09:16PM 41.2694 -74.1469 223° Southwest 406 467 30,000  Level New York Center
09:17PM 41.1792 -74.2500 221° Southwest 428 493 30,000  Level New York Center
09:18PM 41.0947 -74.3583 224° Southwest 428 493 30,000  Level New York Center
09:19PM 41.0058 -74.4639 222° Southwest 428 493 30,000  Level New York Center
09:20PM 40.9192 -74.5717 223° Southwest 433 498 30,000  Level New York Center
09:21PM 40.8647 -74.7111 243° Southwest 427 491 30,000  Level New York Center
09:22PM 40.8019 -74.8419 238° Southwest 427 491 30,000  Level New York Center
09:23PM 40.7408 -74.9753 239° Southwest 427 491 30,000 -180 Level New York Center
09:24PM 40.6797 -75.1083 239° Southwest 427 491 29,700 -1,020 Descending New York Center
09:25PM 40.6208 -75.2386 239° Southwest 427 491 28,000 -1,740 Descending New York Center
09:26PM 40.5617 -75.3686 239° Southwest 427 491 26,300 -1,740 Descending New York Center
09:27PM 40.5028 -75.4903 238° Southwest 415 478 24,600 -1,740 Descending New York Center
09:28PM 40.4433 -75.6169 238° Southwest 410 472 22,900 -1,680 Descending New York Center
09:29PM 40.3839 -75.7436 238° Southwest 410 472 21,300 -1,440 Descending New York Center
09:30PM 40.3311 -75.8542 238° Southwest 411 473 20,100 -660 Descending New York Center
09:31PM 40.2694 -75.9775 237° Southwest 411 473 20,000 -60 Descending New York Center
09:32PM 40.2097 -76.1008 238° Southwest 406 467 20,000  Level New York Center
09:33PM 40.1564 -76.2189 239° Southwest 401 461 20,000  Level New York Center
09:34PM 40.0878 -76.3519 236° Southwest 401 461 20,000 -600 Level New York Center
09:35PM 40.0364 -76.4700 240° Southwest 395 455 18,900 -1,080 Descending New York Center
09:36PM 39.9894 -76.5744 240° Southwest 376 433 17,900 -960 Descending New York Center
09:37PM 39.9289 -76.7050 239° Southwest 376 433 17,000 -600 Descending New York Center
09:39PM 39.8500 -76.8833 240° Southwest 379 436 16,300 -1,080 Descending Potomac TRACON
09:40PM 39.7833 -77.0167 237° Southwest 373 429 14,000 -1,920 Descending Potomac TRACON
09:41PM 39.7333 -77.1167 237° Southwest 365 420 12,500 -1,740 Descending Potomac TRACON
09:42PM 39.6833 -77.2167 237° Southwest 352 405 10,700 -1,200 Descending Potomac TRACON
09:43PM 39.6333 -77.3167 237° Southwest 328 377 10,100 -720 Descending Potomac TRACON
09:44PM 39.5667 -77.3500 201° Southwest 292 336 9,300 -1,140 Descending Potomac TRACON
09:45PM 39.4833 -77.3500 180° South 298 343 7,900 -1,200 Descending Potomac TRACON
09:46PM 39.4000 -77.3667 189° South 301 346 6,900 -1,200 Descending Potomac TRACON
09:47PM 39.3000 -77.3667 180° South 291 335 5,500 -1,080 Descending Potomac TRACON
09:48PM 39.2333 -77.3667 180° South 282 325 4,700 -840 Descending Potomac TRACON
09:49PM 39.1500 -77.3500 171° South 281 323 4,000 -840 Descending Potomac TRACON
09:50PM 39.0667 -77.3500 180° South 280 322 3,200 -600 Descending Potomac TRACON
09:51PM 39.0000 -77.3500 180° South 275 316 2,800 -660 Descending Potomac TRACON
09:52PM 38.9333 -77.3500 180° South 250 288 1,900 -480 Descending Potomac TRACON
09:53PM 38.8667 -77.3500 180° South 205 236 1,900  Level Potomac TRACON